Rechercher aéroport 
image banner adimage banner adimage banner ad
image banner ad

KNJK - El Centro Naf

Situé à El Centro, United States

ICAO - NJK, IATA -

Données fournies par Airmate  

Information générale

Coordonnées: N32°49'36" W115°40'7"
Élévation : -42 feet MSL.
Variation magnétique : 11° East
Voir autres Aéroports à California

Données opérationnelles

Special qualification required
Heure actuelle UTC:
Heure actuelle locale:
Météo
METAR: KNJK 260856Z AUTO 26004KT 10SM CLR 25/15 A2986 RMK AO2 SLP128 T02500150 53000 $
TAF: TAF KNJK 2515/2615 VRB06KT 9000 HZ FEW120 QNH2994INS BECMG 2521/2523 13008KT 9999 VCTS SCT080 BKN100CB BKN180 QNH2982INS TEMPO 2523/2602 VRB15G24KT 6000 -TSRA BKN080CB BKN150 QNH2997INS BECMG 2602/2604 VRB06KT 9999 VCTS SCT070 SCT100CB BKN200 QNH2985INS FM260800 VRB06KT FEW070 FEW130 QNH2987INS T35/2522Z T22/2613Z FS30186
Voir NOTAMs / SUP AIP / TFR affectant cet aéroport [VIEW]
Fréquences de communication: [VIEW]

Pistes:

Identifiant RWYQFULongueur (ft)Largeur (ft)SurfaceLDA (ft)
0890°9503200OTHER
26270°9503200OTHER
12135°6825200OTHER
30315°6825200OTHER

Coordonnées de l'aéroport

Adresse: El Centro United States

Vue satellite de KNJK